sensor_id;sensor_type;location;lat;lon;timestamp;pressure;altitude;pressure_sealevel;temperature;humidity
76858;BME280;65830;0.000;0.000;2023-02-28T00:01:22;100259.66;;;10.85;59.52
76858;BME280;65830;0.000;0.000;2023-02-28T00:03:47;100267.28;;;11.10;59.06
76858;BME280;65830;0.000;0.000;2023-02-28T00:06:13;100266.94;;;11.04;59.56
76858;BME280;65830;0.000;0.000;2023-02-28T00:08:38;100264.66;;;10.99;59.12
76858;BME280;65830;0.000;0.000;2023-02-28T00:11:05;100271.78;;;10.99;59.02
76858;BME280;65830;0.000;0.000;2023-02-28T00:13:31;100275.06;;;10.91;59.13
76858;BME280;65830;0.000;0.000;2023-02-28T00:16:01;100269.97;;;10.99;59.17
76858;BME280;65830;0.000;0.000;2023-02-28T00:18:27;100266.13;;;10.92;59.35
76858;BME280;65830;0.000;0.000;2023-02-28T00:20:52;100269.47;;;11.05;58.77
76858;BME280;65830;0.000;0.000;2023-02-28T00:23:18;100266.94;;;11.04;59.03
76858;BME280;65830;0.000;0.000;2023-02-28T00:25:43;100271.09;;;10.97;59.01
76858;BME280;65830;0.000;0.000;2023-02-28T00:28:09;100272.97;;;11.06;58.90
76858;BME280;65830;0.000;0.000;2023-02-28T00:30:35;100270.50;;;10.82;59.99
76858;BME280;65830;0.000;0.000;2023-02-28T00:33:03;100271.00;;;10.76;60.02
76858;BME280;65830;0.000;0.000;2023-02-28T00:35:29;100257.91;;;10.63;60.42
76858;BME280;65830;0.000;0.000;2023-02-28T00:37:54;100248.63;;;10.57;60.33
76858;BME280;65830;0.000;0.000;2023-02-28T00:40:20;100246.69;;;10.59;60.73
76858;BME280;65830;0.000;0.000;2023-02-28T00:42:45;100247.84;;;10.78;59.89
76858;BME280;65830;0.000;0.000;2023-02-28T00:45:11;100250.97;;;10.83;60.01
76858;BME280;65830;0.000;0.000;2023-02-28T00:47:37;100258.22;;;10.81;60.21
76858;BME280;65830;0.000;0.000;2023-02-28T00:50:02;100260.66;;;10.72;60.17
76858;BME280;65830;0.000;0.000;2023-02-28T00:52:28;100258.25;;;10.69;60.18
76858;BME280;65830;0.000;0.000;2023-02-28T00:54:54;100255.88;;;10.66;60.13
76858;BME280;65830;0.000;0.000;2023-02-28T00:57:19;100251.50;;;10.65;60.59
76858;BME280;65830;0.000;0.000;2023-02-28T00:59:45;100252.72;;;10.61;60.43
76858;BME280;65830;0.000;0.000;2023-02-28T01:02:10;100261.63;;;10.60;60.62
76858;BME280;65830;0.000;0.000;2023-02-28T01:04:36;100264.34;;;10.49;61.12
76858;BME280;65830;0.000;0.000;2023-02-28T01:07:01;100277.13;;;10.44;60.96
76858;BME280;65830;0.000;0.000;2023-02-28T01:09:27;100285.56;;;10.38;61.46
76858;BME280;65830;0.000;0.000;2023-02-28T01:11:53;100285.34;;;10.41;61.11
76858;BME280;65830;0.000;0.000;2023-02-28T01:14:18;100278.09;;;10.43;60.95
76858;BME280;65830;0.000;0.000;2023-02-28T01:16:44;100292.56;;;10.39;61.61
76858;BME280;65830;0.000;0.000;2023-02-28T01:19:10;100285.44;;;10.39;61.10
76858;BME280;65830;0.000;0.000;2023-02-28T01:21:37;100285.44;;;10.39;61.21
76858;BME280;65830;0.000;0.000;2023-02-28T01:24:03;100296.06;;;10.50;60.42
76858;BME280;65830;0.000;0.000;2023-02-28T01:26:29;100295.69;;;10.55;60.50
76858;BME280;65830;0.000;0.000;2023-02-28T01:28:55;100291.47;;;10.52;60.23
76858;BME280;65830;0.000;0.000;2023-02-28T01:31:20;100294.59;;;10.46;60.72
76858;BME280;65830;0.000;0.000;2023-02-28T01:33:48;100285.06;;;10.55;60.44
76858;BME280;65830;0.000;0.000;2023-02-28T01:36:17;100288.94;;;10.51;60.32
76858;BME280;65830;0.000;0.000;2023-02-28T01:38:43;100305.19;;;10.46;60.50
76858;BME280;65830;0.000;0.000;2023-02-28T01:41:09;100304.97;;;10.38;60.99
76858;BME280;65830;0.000;0.000;2023-02-28T01:46:08;100318.97;;;10.40;60.52
76858;BME280;65830;0.000;0.000;2023-02-28T01:48:35;100315.47;;;10.40;60.61
76858;BME280;65830;0.000;0.000;2023-02-28T01:51:06;100326.06;;;10.40;61.21
76858;BME280;65830;0.000;0.000;2023-02-28T01:53:37;100327.28;;;10.36;61.30
76858;BME280;65830;0.000;0.000;2023-02-28T01:56:04;100330.66;;;10.38;61.32
76858;BME280;65830;0.000;0.000;2023-02-28T01:58:32;100322.81;;;10.36;61.28
76858;BME280;65830;0.000;0.000;2023-02-28T02:00:57;100339.84;;;10.33;61.25
76858;BME280;65830;0.000;0.000;2023-02-28T02:03:23;100344.66;;;10.40;61.44
76858;BME280;65830;0.000;0.000;2023-02-28T02:05:48;100350.78;;;10.40;61.56
76858;BME280;65830;0.000;0.000;2023-02-28T02:08:19;100355.38;;;10.49;61.04
76858;BME280;65830;0.000;0.000;2023-02-28T02:10:58;100359.25;;;10.45;61.24
76858;BME280;65830;0.000;0.000;2023-02-28T02:31:43;100360.81;;;10.37;61.43
76858;BME280;65830;0.000;0.000;2023-02-28T02:42:23;100371.63;;;10.22;62.98
76858;BME280;65830;0.000;0.000;2023-02-28T02:44:55;100371.84;;;10.08;63.18
76858;BME280;65830;0.000;0.000;2023-02-28T02:47:24;100361.00;;;10.11;63.35
76858;BME280;65830;0.000;0.000;2023-02-28T02:49:52;100372.47;;;10.11;63.66
76858;BME280;65830;0.000;0.000;2023-02-28T02:52:20;100383.88;;;9.89;64.29
76858;BME280;65830;0.000;0.000;2023-02-28T02:54:47;100387.25;;;9.91;64.81
76858;BME280;65830;0.000;0.000;2023-02-28T02:57:26;100379.56;;;10.11;64.48
76858;BME280;65830;0.000;0.000;2023-02-28T02:59:53;100398.00;;;10.01;65.01
76858;BME280;65830;0.000;0.000;2023-02-28T03:02:20;100398.09;;;10.00;65.10
76858;BME280;65830;0.000;0.000;2023-02-28T03:04:48;100404.34;;;9.99;65.54
76858;BME280;65830;0.000;0.000;2023-02-28T03:07:16;100404.09;;;9.90;65.75
76858;BME280;65830;0.000;0.000;2023-02-28T03:09:49;100406.19;;;10.09;65.70
76858;BME280;65830;0.000;0.000;2023-02-28T03:12:15;100413.28;;;9.98;65.42
76858;BME280;65830;0.000;0.000;2023-02-28T03:22:46;100418.31;;;9.89;67.10
76858;BME280;65830;0.000;0.000;2023-02-28T03:25:37;100420.56;;;10.18;66.16
76858;BME280;65830;0.000;0.000;2023-02-28T03:28:08;100428.03;;;10.13;66.28
76858;BME280;65830;0.000;0.000;2023-02-28T03:33:19;100427.88;;;10.03;66.57
76858;BME280;65830;0.000;0.000;2023-02-28T03:35:50;100426.94;;;10.16;66.28
76858;BME280;65830;0.000;0.000;2023-02-28T03:40:50;100429.31;;;10.43;66.27
76858;BME280;65830;0.000;0.000;2023-02-28T03:43:21;100434.84;;;10.40;65.90
76858;BME280;65830;0.000;0.000;2023-02-28T03:45:48;100428.75;;;10.15;66.78
76858;BME280;65830;0.000;0.000;2023-02-28T03:48:18;100435.00;;;10.14;66.83
76858;BME280;65830;0.000;0.000;2023-02-28T03:50:46;100430.94;;;10.21;67.00
76858;BME280;65830;0.000;0.000;2023-02-28T03:53:18;100442.03;;;10.15;67.20
76858;BME280;65830;0.000;0.000;2023-02-28T03:55:47;100446.44;;;10.14;67.53
76858;BME280;65830;0.000;0.000;2023-02-28T04:01:03;100453.25;;;9.83;68.30
76858;BME280;65830;0.000;0.000;2023-02-28T04:03:36;100454.81;;;9.86;68.50
76858;BME280;65830;0.000;0.000;2023-02-28T04:06:03;100458.56;;;9.83;68.39
76858;BME280;65830;0.000;0.000;2023-02-28T04:08:29;100472.75;;;9.82;68.65
76858;BME280;65830;0.000;0.000;2023-02-28T04:10:59;100470.63;;;9.99;68.01
76858;BME280;65830;0.000;0.000;2023-02-28T04:13:26;100470.53;;;10.00;68.42
76858;BME280;65830;0.000;0.000;2023-02-28T04:15:52;100474.47;;;9.94;68.05
76858;BME280;65830;0.000;0.000;2023-02-28T04:18:17;100484.59;;;9.89;68.55
76858;BME280;65830;0.000;0.000;2023-02-28T04:20:43;100483.50;;;9.92;68.31
76858;BME280;65830;0.000;0.000;2023-02-28T04:23:08;100482.50;;;9.82;68.50
76858;BME280;65830;0.000;0.000;2023-02-28T04:25:34;100486.44;;;10.00;67.99
76858;BME280;65830;0.000;0.000;2023-02-28T04:27:59;100481.81;;;9.91;68.06
76858;BME280;65830;0.000;0.000;2023-02-28T04:30:25;100469.63;;;9.88;67.82
76858;BME280;65830;0.000;0.000;2023-02-28T04:32:50;100481.97;;;10.01;67.96
76858;BME280;65830;0.000;0.000;2023-02-28T04:35:16;100475.00;;;10.00;67.54
76858;BME280;65830;0.000;0.000;2023-02-28T04:37:41;100476.91;;;9.98;67.47
76858;BME280;65830;0.000;0.000;2023-02-28T04:40:07;100472.91;;;9.92;67.45
76858;BME280;65830;0.000;0.000;2023-02-28T04:42:33;100475.16;;;10.09;67.06
76858;BME280;65830;0.000;0.000;2023-02-28T04:45:04;100478.59;;;9.99;67.22
76858;BME280;65830;0.000;0.000;2023-02-28T04:47:29;100477.19;;;10.06;66.99
76858;BME280;65830;0.000;0.000;2023-02-28T04:49:55;100482.22;;;9.98;67.39
76858;BME280;65830;0.000;0.000;2023-02-28T04:52:20;100488.47;;;10.32;65.84
76858;BME280;65830;0.000;0.000;2023-02-28T04:54:46;100483.00;;;10.58;64.62
76858;BME280;65830;0.000;0.000;2023-02-28T04:57:11;100481.66;;;10.63;64.10
76858;BME280;65830;0.000;0.000;2023-02-28T04:59:37;100475.16;;;10.45;65.01
76858;BME280;65830;0.000;0.000;2023-02-28T05:02:02;100492.50;;;10.49;64.51
76858;BME280;65830;0.000;0.000;2023-02-28T05:04:32;100504.31;;;10.56;64.12
76858;BME280;65830;0.000;0.000;2023-02-28T05:06:59;100513.28;;;10.55;63.96
76858;BME280;65830;0.000;0.000;2023-02-28T05:09:25;100516.00;;;10.42;64.24
76858;BME280;65830;0.000;0.000;2023-02-28T05:11:50;100510.38;;;10.58;63.56
76858;BME280;65830;0.000;0.000;2023-02-28T05:14:16;100514.97;;;10.67;63.24
76858;BME280;65830;0.000;0.000;2023-02-28T05:16:41;100517.84;;;10.64;62.99
76858;BME280;65830;0.000;0.000;2023-02-28T05:19:07;100519.69;;;10.75;62.63
76858;BME280;65830;0.000;0.000;2023-02-28T05:21:48;100527.63;;;10.64;63.04
76858;BME280;65830;0.000;0.000;2023-02-28T05:24:14;100519.69;;;10.75;62.64
76858;BME280;65830;0.000;0.000;2023-02-28T05:26:41;100516.44;;;10.71;62.74
76858;BME280;65830;0.000;0.000;2023-02-28T05:29:07;100530.31;;;10.75;62.42
76858;BME280;65830;0.000;0.000;2023-02-28T05:31:32;100535.13;;;10.59;62.76
76858;BME280;65830;0.000;0.000;2023-02-28T05:33:58;100533.91;;;10.27;63.86
76858;BME280;65830;0.000;0.000;2023-02-28T05:36:23;100536.66;;;10.50;63.53
76858;BME280;65830;0.000;0.000;2023-02-28T05:38:49;100543.41;;;10.54;63.35
76858;BME280;65830;0.000;0.000;2023-02-28T05:41:16;100550.56;;;10.65;62.75
76858;BME280;65830;0.000;0.000;2023-02-28T05:43:41;100540.16;;;10.62;62.68
76858;BME280;65830;0.000;0.000;2023-02-28T05:46:07;100552.38;;;10.76;62.27
76858;BME280;65830;0.000;0.000;2023-02-28T05:48:34;100553.34;;;10.86;61.97
76858;BME280;65830;0.000;0.000;2023-02-28T05:51:00;100562.06;;;10.99;61.59
76858;BME280;65830;0.000;0.000;2023-02-28T05:53:26;100556.72;;;10.65;62.46
76858;BME280;65830;0.000;0.000;2023-02-28T05:55:52;100549.81;;;10.51;63.13
76858;BME280;65830;0.000;0.000;2023-02-28T05:58:17;100556.50;;;10.68;62.70
76858;BME280;65830;0.000;0.000;2023-02-28T06:00:43;100556.97;;;10.73;62.73
76858;BME280;65830;0.000;0.000;2023-02-28T06:03:09;100560.59;;;10.84;61.70
76858;BME280;65830;0.000;0.000;2023-02-28T06:05:34;100564.41;;;10.57;62.54
76858;BME280;65830;0.000;0.000;2023-02-28T06:08:00;100564.72;;;10.77;61.98
76858;BME280;65830;0.000;0.000;2023-02-28T06:10:25;100573.41;;;10.90;61.66
76858;BME280;65830;0.000;0.000;2023-02-28T06:12:51;100579.28;;;10.71;62.17
76858;BME280;65830;0.000;0.000;2023-02-28T06:15:16;100580.81;;;10.51;62.76
76858;BME280;65830;0.000;0.000;2023-02-28T06:17:42;100579.06;;;10.85;61.93
76858;BME280;65830;0.000;0.000;2023-02-28T06:20:09;100586.94;;;10.98;61.65
76858;BME280;65830;0.000;0.000;2023-02-28T06:22:35;100586.22;;;10.96;61.49
76858;BME280;65830;0.000;0.000;2023-02-28T06:25:01;100583.28;;;10.77;62.05
76858;BME280;65830;0.000;0.000;2023-02-28T06:27:27;100587.53;;;10.90;62.00
76858;BME280;65830;0.000;0.000;2023-02-28T06:29:55;100580.19;;;11.05;61.15
76858;BME280;65830;0.000;0.000;2023-02-28T06:32:21;100577.50;;;10.94;61.56
76858;BME280;65830;0.000;0.000;2023-02-28T06:34:46;100588.50;;;11.01;61.42
76858;BME280;65830;0.000;0.000;2023-02-28T06:37:12;100588.25;;;10.92;61.69
76858;BME280;65830;0.000;0.000;2023-02-28T06:39:38;100586.97;;;11.21;60.67
76858;BME280;65830;0.000;0.000;2023-02-28T06:42:03;100584.53;;;11.40;60.34
76858;BME280;65830;0.000;0.000;2023-02-28T06:44:29;100576.34;;;11.32;60.53
76858;BME280;65830;0.000;0.000;2023-02-28T06:47:00;100575.59;;;11.41;60.34
76858;BME280;65830;0.000;0.000;2023-02-28T06:49:28;100588.19;;;11.28;61.06
76858;BME280;65830;0.000;0.000;2023-02-28T06:51:54;100582.22;;;11.36;60.58
76858;BME280;65830;0.000;0.000;2023-02-28T06:54:19;100588.53;;;11.12;61.02
76858;BME280;65830;0.000;0.000;2023-02-28T06:56:45;100597.72;;;11.30;60.93
76858;BME280;65830;0.000;0.000;2023-02-28T06:59:12;100602.41;;;11.27;60.92
76858;BME280;65830;0.000;0.000;2023-02-28T07:01:37;100601.09;;;11.44;60.09
76858;BME280;65830;0.000;0.000;2023-02-28T07:04:04;100609.19;;;11.42;60.24
76858;BME280;65830;0.000;0.000;2023-02-28T07:06:30;100604.34;;;11.36;60.30
76858;BME280;65830;0.000;0.000;2023-02-28T07:08:56;100604.09;;;11.17;61.00
76858;BME280;65830;0.000;0.000;2023-02-28T07:11:22;100609.38;;;10.83;61.72
76858;BME280;65830;0.000;0.000;2023-02-28T07:13:51;100605.66;;;10.97;61.41
76858;BME280;65830;0.000;0.000;2023-02-28T07:16:16;100599.66;;;11.28;60.51
76858;BME280;65830;0.000;0.000;2023-02-28T07:18:42;100605.16;;;10.56;62.62
76858;BME280;65830;0.000;0.000;2023-02-28T07:21:08;100613.31;;;10.77;62.50
76858;BME280;65830;0.000;0.000;2023-02-28T07:23:34;100600.16;;;10.76;62.37
76858;BME280;65830;0.000;0.000;2023-02-28T07:25:59;100613.69;;;10.84;62.48
76858;BME280;65830;0.000;0.000;2023-02-28T07:28:25;100613.00;;;10.93;62.07
76858;BME280;65830;0.000;0.000;2023-02-28T07:30:51;100621.34;;;11.11;61.01
76858;BME280;65830;0.000;0.000;2023-02-28T07:33:16;100618.25;;;11.28;60.75
76858;BME280;65830;0.000;0.000;2023-02-28T07:35:42;100628.47;;;11.10;60.95
76858;BME280;65830;0.000;0.000;2023-02-28T07:38:08;100626.31;;;11.04;61.12
76858;BME280;65830;0.000;0.000;2023-02-28T07:40:33;100635.91;;;10.94;61.55
76858;BME280;65830;0.000;0.000;2023-02-28T07:43:00;100629.88;;;10.81;62.19
76858;BME280;65830;0.000;0.000;2023-02-28T07:45:26;100625.75;;;10.88;61.74
76858;BME280;65830;0.000;0.000;2023-02-28T07:47:51;100622.66;;;11.05;61.11
76858;BME280;65830;0.000;0.000;2023-02-28T07:50:17;100623.16;;;11.22;60.83
76858;BME280;65830;0.000;0.000;2023-02-28T07:52:42;100615.69;;;11.16;61.25
76858;BME280;65830;0.000;0.000;2023-02-28T07:55:08;100623.72;;;10.45;62.65
76858;BME280;65830;0.000;0.000;2023-02-28T07:57:34;100624.81;;;10.89;62.02
76858;BME280;65830;0.000;0.000;2023-02-28T08:00:00;100632.31;;;10.60;62.74
76858;BME280;65830;0.000;0.000;2023-02-28T08:02:36;100630.50;;;10.60;62.80
76858;BME280;65830;0.000;0.000;2023-02-28T08:05:02;100631.94;;;10.53;63.62
76858;BME280;65830;0.000;0.000;2023-02-28T08:07:28;100622.59;;;10.71;62.47
76858;BME280;65830;0.000;0.000;2023-02-28T08:09:53;100641.94;;;10.49;63.33
76858;BME280;65830;0.000;0.000;2023-02-28T08:12:19;100638.47;;;10.60;62.91
76858;BME280;65830;0.000;0.000;2023-02-28T08:14:44;100641.69;;;10.88;62.23
76858;BME280;65830;0.000;0.000;2023-02-28T08:17:10;100637.38;;;10.87;62.47
76858;BME280;65830;0.000;0.000;2023-02-28T08:19:36;100639.56;;;10.93;62.35
76858;BME280;65830;0.000;0.000;2023-02-28T08:22:01;100640.41;;;11.05;61.57
76858;BME280;65830;0.000;0.000;2023-02-28T08:24:27;100633.28;;;11.05;61.80
76858;BME280;65830;0.000;0.000;2023-02-28T08:26:52;100634.75;;;10.98;62.08
76858;BME280;65830;0.000;0.000;2023-02-28T08:29:18;100628.63;;;10.73;62.26
76858;BME280;65830;0.000;0.000;2023-02-28T08:31:44;100625.81;;;10.99;61.95
76858;BME280;65830;0.000;0.000;2023-02-28T08:34:09;100619.75;;;10.97;62.21
76858;BME280;65830;0.000;0.000;2023-02-28T08:36:35;100624.75;;;11.36;61.07
76858;BME280;65830;0.000;0.000;2023-02-28T08:39:01;100624.88;;;11.45;60.79
76858;BME280;65830;0.000;0.000;2023-02-28T08:41:27;100632.72;;;11.47;60.74
76858;BME280;65830;0.000;0.000;2023-02-28T08:43:52;100640.94;;;11.66;60.04
76858;BME280;65830;0.000;0.000;2023-02-28T08:46:19;100641.19;;;11.52;60.01
76858;BME280;65830;0.000;0.000;2023-02-28T08:48:44;100637.44;;;11.55;60.48
76858;BME280;65830;0.000;0.000;2023-02-28T08:51:11;100636.72;;;11.41;60.51
76858;BME280;65830;0.000;0.000;2023-02-28T08:53:38;100643.38;;;11.58;60.18
76858;BME280;65830;0.000;0.000;2023-02-28T08:56:05;100646.13;;;11.57;60.16
76858;BME280;65830;0.000;0.000;2023-02-28T08:58:31;100650.25;;;11.72;59.81
76858;BME280;65830;0.000;0.000;2023-02-28T09:00:57;100653.03;;;11.82;59.43
76858;BME280;65830;0.000;0.000;2023-02-28T09:03:22;100650.22;;;11.49;60.28
76858;BME280;65830;0.000;0.000;2023-02-28T09:05:58;100640.44;;;11.27;60.96
76858;BME280;65830;0.000;0.000;2023-02-28T09:08:24;100653.88;;;11.48;60.56
76858;BME280;65830;0.000;0.000;2023-02-28T09:10:50;100639.50;;;11.73;59.73
76858;BME280;65830;0.000;0.000;2023-02-28T09:13:16;100648.78;;;11.79;59.36
76858;BME280;65830;0.000;0.000;2023-02-28T09:15:42;100650.00;;;11.41;60.20
76858;BME280;65830;0.000;0.000;2023-02-28T09:18:07;100653.16;;;11.46;60.36
76858;BME280;65830;0.000;0.000;2023-02-28T09:20:33;100640.41;;;11.05;61.57
76858;BME280;65830;0.000;0.000;2023-02-28T09:22:58;100641.66;;;11.23;60.98
76858;BME280;65830;0.000;0.000;2023-02-28T09:25:24;100633.50;;;10.91;61.98
76858;BME280;65830;0.000;0.000;2023-02-28T09:27:50;100637.91;;;11.15;61.54
76858;BME280;65830;0.000;0.000;2023-02-28T09:30:15;100647.06;;;11.10;61.74
76858;BME280;65830;0.000;0.000;2023-02-28T09:32:41;100628.72;;;11.19;61.33
76858;BME280;65830;0.000;0.000;2023-02-28T09:35:07;100624.88;;;11.23;60.82
76858;BME280;65830;0.000;0.000;2023-02-28T09:37:38;100620.06;;;11.28;61.02
76858;BME280;65830;0.000;0.000;2023-02-28T09:40:04;100615.94;;;11.35;60.73
76858;BME280;65830;0.000;0.000;2023-02-28T09:42:31;100617.38;;;11.50;60.53
76858;BME280;65830;0.000;0.000;2023-02-28T09:44:57;100622.56;;;11.29;61.31
76858;BME280;65830;0.000;0.000;2023-02-28T09:47:34;100627.53;;;11.45;60.45
76858;BME280;65830;0.000;0.000;2023-02-28T09:50:44;100629.00;;;11.38;60.83
76858;BME280;65830;0.000;0.000;2023-02-28T09:52:50;100629.97;;;11.26;60.84
76858;BME280;65830;0.000;0.000;2023-02-28T09:55:28;100625.38;;;11.28;60.96
76858;BME280;65830;0.000;0.000;2023-02-28T09:57:55;100630.41;;;11.08;61.62
76858;BME280;65830;0.000;0.000;2023-02-28T10:00:24;100627.47;;;10.89;62.40
76858;BME280;65830;0.000;0.000;2023-02-28T10:05:19;100604.44;;;11.01;62.29
76858;BME280;65830;0.000;0.000;2023-02-28T10:07:55;100590.84;;;11.28;61.55
76858;BME280;65830;0.000;0.000;2023-02-28T10:10:27;100584.53;;;11.29;61.33
76858;BME280;65830;0.000;0.000;2023-02-28T10:12:55;100600.94;;;11.00;62.38
76858;BME280;65830;0.000;0.000;2023-02-28T10:15:21;100603.50;;;11.24;61.68
76858;BME280;65830;0.000;0.000;2023-02-28T10:17:48;100607.13;;;11.12;62.07
76858;BME280;65830;0.000;0.000;2023-02-28T10:20:17;100593.59;;;11.26;61.35
76858;BME280;65830;0.000;0.000;2023-02-28T10:22:57;100596.00;;;11.52;60.76
76858;BME280;65830;0.000;0.000;2023-02-28T10:25:25;100594.91;;;11.55;60.66
76858;BME280;65830;0.000;0.000;2023-02-28T10:28:24;100589.84;;;11.18;62.03
76858;BME280;65830;0.000;0.000;2023-02-28T10:30:50;100582.72;;;11.41;61.04
76858;BME280;65830;0.000;0.000;2023-02-28T10:33:21;100583.44;;;11.31;61.48
76858;BME280;65830;0.000;0.000;2023-02-28T10:35:47;100578.00;;;11.22;61.66
76858;BME280;65830;0.000;0.000;2023-02-28T10:38:18;100581.38;;;11.35;61.04
76858;BME280;65830;0.000;0.000;2023-02-28T10:40:44;100577.19;;;11.32;61.04
76858;BME280;65830;0.000;0.000;2023-02-28T10:45:38;100581.78;;;11.42;60.85
76858;BME280;65830;0.000;0.000;2023-02-28T10:55:59;100572.31;;;11.49;60.71
76858;BME280;65830;0.000;0.000;2023-02-28T10:58:46;100564.84;;;11.54;60.54
76858;BME280;65830;0.000;0.000;2023-02-28T11:01:16;100559.88;;;11.61;60.43
76858;BME280;65830;0.000;0.000;2023-02-28T11:03:42;100566.00;;;11.72;59.88
76858;BME280;65830;0.000;0.000;2023-02-28T11:06:19;100559.13;;;11.70;60.05
76858;BME280;65830;0.000;0.000;2023-02-28T11:08:47;100568.09;;;11.35;60.96
76858;BME280;65830;0.000;0.000;2023-02-28T11:11:13;100566.53;;;11.32;60.94
76858;BME280;65830;0.000;0.000;2023-02-28T11:13:39;100565.81;;;11.19;61.49
76858;BME280;65830;0.000;0.000;2023-02-28T11:16:05;100560.25;;;11.00;62.01
76858;BME280;65830;0.000;0.000;2023-02-28T11:21:09;100554.94;;;10.88;62.91
76858;BME280;65830;0.000;0.000;2023-02-28T11:23:41;100556.50;;;10.91;62.73
76858;BME280;65830;0.000;0.000;2023-02-28T11:26:07;100557.88;;;10.50;64.58
76858;BME280;65830;0.000;0.000;2023-02-28T11:28:40;100552.09;;;10.56;64.83
76858;BME280;65830;0.000;0.000;2023-02-28T11:33:42;100557.81;;;10.63;65.56
76858;BME280;65830;0.000;0.000;2023-02-28T11:36:20;100561.91;;;10.78;65.69
76858;BME280;65830;0.000;0.000;2023-02-28T11:38:46;100557.94;;;10.84;65.33
76858;BME280;65830;0.000;0.000;2023-02-28T11:41:16;100558.44;;;10.89;65.07
76858;BME280;65830;0.000;0.000;2023-02-28T11:46:35;100549.00;;;10.73;65.93
76858;BME280;65830;0.000;0.000;2023-02-28T11:49:14;100545.41;;;10.75;65.89
76858;BME280;65830;0.000;0.000;2023-02-28T11:57:00;100551.09;;;10.46;67.20
76858;BME280;65830;0.000;0.000;2023-02-28T12:10:11;100538.59;;;10.59;67.25
76858;BME280;65830;0.000;0.000;2023-02-28T12:12:48;100529.69;;;10.25;67.95
76858;BME280;65830;0.000;0.000;2023-02-28T12:20:47;100529.78;;;10.23;67.52
76858;BME280;65830;0.000;0.000;2023-02-28T12:23:27;100536.16;;;10.45;66.91
76858;BME280;65830;0.000;0.000;2023-02-28T12:28:47;100537.16;;;10.55;66.60
76858;BME280;65830;0.000;0.000;2023-02-28T12:31:20;100534.03;;;10.61;66.40
76858;BME280;65830;0.000;0.000;2023-02-28T12:34:20;100538.50;;;10.61;66.91
76858;BME280;65830;0.000;0.000;2023-02-28T12:36:38;100528.78;;;10.48;67.07
76858;BME280;65830;0.000;0.000;2023-02-28T12:39:08;100524.69;;;10.44;66.82
76858;BME280;65830;0.000;0.000;2023-02-28T12:41:39;100528.09;;;10.58;66.61
76858;BME280;65830;0.000;0.000;2023-02-28T12:44:09;100523.03;;;10.55;66.51
76858;BME280;65830;0.000;0.000;2023-02-28T12:46:38;100516.41;;;10.60;66.38
76858;BME280;65830;0.000;0.000;2023-02-28T12:49:10;100520.56;;;10.40;66.84
76858;BME280;65830;0.000;0.000;2023-02-28T12:51:38;100509.53;;;10.58;66.49
76858;BME280;65830;0.000;0.000;2023-02-28T12:54:06;100517.38;;;10.59;66.41
76858;BME280;65830;0.000;0.000;2023-02-28T12:59:22;100520.00;;;10.37;67.20
76858;BME280;65830;0.000;0.000;2023-02-28T13:06:51;100521.19;;;10.44;67.79
76858;BME280;65830;0.000;0.000;2023-02-28T13:09:23;100511.09;;;10.49;67.81
76858;BME280;65830;0.000;0.000;2023-02-28T13:11:49;100516.41;;;10.49;67.70
76858;BME280;65830;0.000;0.000;2023-02-28T13:16:54;100514.78;;;10.35;68.07
76858;BME280;65830;0.000;0.000;2023-02-28T13:19:20;100520.81;;;10.37;68.28
76858;BME280;65830;0.000;0.000;2023-02-28T13:21:48;100511.97;;;10.25;68.07
76858;BME280;65830;0.000;0.000;2023-02-28T13:29:28;100510.25;;;10.24;69.33
76858;BME280;65830;0.000;0.000;2023-02-28T13:34:34;100509.19;;;10.27;69.81
76858;BME280;65830;0.000;0.000;2023-02-28T13:42:32;100504.41;;;10.32;70.20
76858;BME280;65830;0.000;0.000;2023-02-28T13:47:32;100508.88;;;10.31;70.20
76858;BME280;65830;0.000;0.000;2023-02-28T13:52:45;100507.44;;;10.14;70.24
76858;BME280;65830;0.000;0.000;2023-02-28T13:58:17;100508.63;;;10.10;71.35
76858;BME280;65830;0.000;0.000;2023-02-28T14:00:54;100504.47;;;10.19;71.13
76858;BME280;65830;0.000;0.000;2023-02-28T14:06:09;100502.88;;;10.17;70.74
76858;BME280;65830;0.000;0.000;2023-02-28T14:08:43;100510.88;;;10.28;70.67
76858;BME280;65830;0.000;0.000;2023-02-28T14:11:23;100513.88;;;10.23;70.55
76858;BME280;65830;0.000;0.000;2023-02-28T14:13:49;100509.59;;;10.33;70.72
76858;BME280;65830;0.000;0.000;2023-02-28T14:16:25;100509.59;;;10.33;70.67
76858;BME280;65830;0.000;0.000;2023-02-28T14:21:24;100517.56;;;10.33;70.70
76858;BME280;65830;0.000;0.000;2023-02-28T14:34:48;100515.75;;;10.10;71.17
76858;BME280;65830;0.000;0.000;2023-02-28T14:37:19;100515.81;;;10.21;71.12
76858;BME280;65830;0.000;0.000;2023-02-28T14:39:45;100518.94;;;10.26;70.92
76858;BME280;65830;0.000;0.000;2023-02-28T14:42:26;100517.72;;;10.19;71.15
76858;BME280;65830;0.000;0.000;2023-02-28T14:44:56;100509.53;;;10.22;71.18
76858;BME280;65830;0.000;0.000;2023-02-28T14:47:22;100514.22;;;10.19;71.07
76858;BME280;65830;0.000;0.000;2023-02-28T14:49:49;100519.50;;;10.19;70.96
76858;BME280;65830;0.000;0.000;2023-02-28T14:52:15;100522.78;;;10.22;71.11
76858;BME280;65830;0.000;0.000;2023-02-28T14:54:42;100519.50;;;10.19;71.39
76858;BME280;65830;0.000;0.000;2023-02-28T14:57:25;100523.53;;;10.00;71.68
76858;BME280;65830;0.000;0.000;2023-02-28T15:00:00;100521.78;;;10.12;71.88
76858;BME280;65830;0.000;0.000;2023-02-28T15:02:29;100527.56;;;10.06;71.95
76858;BME280;65830;0.000;0.000;2023-02-28T15:05:00;100542.38;;;10.08;71.61
76858;BME280;65830;0.000;0.000;2023-02-28T15:07:26;100537.53;;;10.02;71.89
76858;BME280;65830;0.000;0.000;2023-02-28T15:12:33;100538.53;;;10.12;71.81
76858;BME280;65830;0.000;0.000;2023-02-28T15:14:59;100539.63;;;10.10;72.05
76858;BME280;65830;0.000;0.000;2023-02-28T15:17:24;100546.75;;;10.09;72.04
76858;BME280;65830;0.000;0.000;2023-02-28T15:19:51;100545.53;;;10.13;72.12
76858;BME280;65830;0.000;0.000;2023-02-28T15:22:19;100547.50;;;9.99;72.07
76858;BME280;65830;0.000;0.000;2023-02-28T15:24:48;100555.31;;;10.13;72.25